createdAt,value
2017-01-30T00:00:29.008Z,1010.35
2017-01-30T00:01:09.662Z,1010.35
2017-01-30T00:01:50.248Z,1010.35
2017-01-30T00:02:30.917Z,1010.32
2017-01-30T00:03:11.621Z,1010.28
2017-01-30T00:03:52.276Z,1010.28
2017-01-30T00:04:32.836Z,1010.3
2017-01-30T00:05:13.582Z,1010.3
2017-01-30T00:05:54.234Z,1010.32
2017-01-30T00:06:34.804Z,1010.26
2017-01-30T00:07:15.540Z,1010.26
2017-01-30T00:07:56.219Z,1010.27
2017-01-30T00:08:36.764Z,1010.24
2017-01-30T00:09:17.413Z,1010.22
2017-01-30T00:09:58.079Z,1010.19
2017-01-30T00:10:38.633Z,1010.17
2017-01-30T00:11:19.281Z,1010.17
2017-01-30T00:11:59.852Z,1010.2
2017-01-30T00:12:40.476Z,1010.17
2017-01-30T00:13:21.209Z,1010.18
2017-01-30T00:14:01.763Z,1010.16
2017-01-30T00:14:42.511Z,1010.14
2017-01-30T00:15:23.273Z,1010.13
2017-01-30T00:16:03.830Z,1010.13
2017-01-30T00:16:44.578Z,1010.13
2017-01-30T00:17:25.339Z,1010.06
2017-01-30T00:18:05.892Z,1010.05
2017-01-30T00:18:46.645Z,1010.06
2017-01-30T00:19:27.392Z,1010.08
2017-01-30T00:20:08.042Z,1010.06
2017-01-30T00:20:48.799Z,1010.06
2017-01-30T00:21:29.555Z,1010.07
2017-01-30T00:22:10.234Z,1010.03
2017-01-30T00:22:50.885Z,1010.07
2017-01-30T00:23:31.619Z,1010.04
2017-01-30T00:24:12.184Z,1010.03
2017-01-30T00:24:52.884Z,1009.98
2017-01-30T00:25:33.577Z,1010.06
2017-01-30T00:26:14.252Z,1009.99
2017-01-30T00:26:54.846Z,1009.97
2017-01-30T00:27:35.518Z,1009.94
2017-01-30T00:28:16.111Z,1009.96
2017-01-30T00:28:56.761Z,1009.95
2017-01-30T00:29:37.342Z,1009.93
2017-01-30T00:30:17.918Z,1009.92
2017-01-30T00:30:58.666Z,1009.95
2017-01-30T00:31:39.276Z,1009.95
2017-01-30T00:32:19.831Z,1009.9
2017-01-30T00:33:00.497Z,1009.9
2017-01-30T00:33:41.239Z,1009.88
2017-01-30T00:34:21.962Z,1009.9
2017-01-30T00:35:02.532Z,1009.87
2017-01-30T00:35:43.225Z,1009.9
2017-01-30T00:36:23.916Z,1009.86
2017-01-30T00:37:04.675Z,1009.87
2017-01-30T00:37:45.265Z,1009.86
2017-01-30T00:38:25.933Z,1009.86
2017-01-30T00:39:06.641Z,1009.85
2017-01-30T00:39:47.218Z,1009.83
2017-01-30T00:40:27.908Z,1009.82
2017-01-30T00:41:08.599Z,1009.79
2017-01-30T00:41:49.252Z,1009.78
2017-01-30T00:42:29.851Z,1009.77
2017-01-30T00:43:10.606Z,1009.74
2017-01-30T00:43:51.330Z,1009.74
2017-01-30T00:44:32.078Z,1009.74
2017-01-30T00:45:12.627Z,1009.73
2017-01-30T00:45:53.242Z,1009.72
2017-01-30T00:46:33.833Z,1009.72
2017-01-30T00:47:14.487Z,1009.75
2017-01-30T00:47:55.055Z,1009.7
2017-01-30T00:48:35.662Z,1009.73
2017-01-30T00:49:16.245Z,1009.73
2017-01-30T00:49:56.807Z,1009.71
2017-01-30T00:50:37.447Z,1009.66
2017-01-30T00:51:18.096Z,1009.66
2017-01-30T00:51:58.749Z,1009.69
2017-01-30T00:52:39.487Z,1009.64
2017-01-30T00:53:20.163Z,1009.64
2017-01-30T00:54:00.819Z,1009.64
2017-01-30T00:54:41.462Z,1009.64
2017-01-30T00:55:22.138Z,1009.61
2017-01-30T00:56:02.862Z,1009.65
2017-01-30T00:56:43.422Z,1009.58
2017-01-30T00:57:24.073Z,1009.58
2017-01-30T00:58:04.825Z,1009.59
2017-01-30T00:58:45.583Z,1009.57
2017-01-30T00:59:26.150Z,1009.53
2017-01-30T01:00:06.869Z,1009.51
2017-01-30T01:00:47.442Z,1009.52
2017-01-30T01:01:28.016Z,1009.55
2017-01-30T01:02:08.635Z,1009.49
2017-01-30T01:02:49.301Z,1009.53
2017-01-30T01:03:29.864Z,1009.53
2017-01-30T01:04:10.610Z,1009.46
2017-01-30T01:04:51.349Z,1009.5
2017-01-30T01:05:32.105Z,1009.46
2017-01-30T01:06:12.764Z,1009.39
2017-01-30T01:06:53.502Z,1009.43
2017-01-30T01:07:34.275Z,1009.4
2017-01-30T01:08:15.033Z,1009.38
2017-01-30T01:08:55.784Z,1009.37
2017-01-30T01:09:36.542Z,1009.4
2017-01-30T01:10:17.094Z,1009.37
2017-01-30T01:10:57.845Z,1009.37
2017-01-30T01:11:38.603Z,1009.36
2017-01-30T01:12:19.135Z,1009.31
2017-01-30T01:12:59.899Z,1009.32
2017-01-30T01:13:40.662Z,1009.33
2017-01-30T01:14:21.233Z,1009.29
2017-01-30T01:15:01.913Z,1009.27
2017-01-30T01:15:42.522Z,1009.3
2017-01-30T01:16:23.193Z,1009.22
2017-01-30T01:17:03.748Z,1009.26
2017-01-30T01:17:44.353Z,1009.23
2017-01-30T01:18:25.112Z,1009.24
2017-01-30T01:19:05.895Z,1009.24
2017-01-30T01:19:46.636Z,1009.22
2017-01-30T01:20:27.191Z,1009.22
2017-01-30T01:21:07.888Z,1009.22
2017-01-30T01:21:48.676Z,1009.22
2017-01-30T01:22:29.403Z,1009.21
2017-01-30T01:23:10.164Z,1009.2
2017-01-30T01:23:50.921Z,1009.2
2017-01-30T01:24:31.600Z,1009.15
2017-01-30T01:25:12.378Z,1009.16
2017-01-30T01:25:52.927Z,1009.17
2017-01-30T01:26:33.680Z,1009.16
2017-01-30T01:27:14.246Z,1009.16
2017-01-30T01:27:54.939Z,1009.14
2017-01-30T01:28:35.641Z,1009.16
2017-01-30T01:29:16.294Z,1009.16
2017-01-30T01:29:57.044Z,1009.13
2017-01-30T01:30:37.799Z,1009.14
2017-01-30T01:31:18.463Z,1009.06
2017-01-30T01:31:59.213Z,1009.06
2017-01-30T01:32:39.963Z,1009.05
2017-01-30T01:33:20.723Z,1009.07
2017-01-30T01:34:01.471Z,1009.07
2017-01-30T01:34:42.232Z,1009.07
2017-01-30T01:35:22.990Z,1009.05
2017-01-30T01:36:03.648Z,1009.07
2017-01-30T01:36:44.393Z,1009.09
2017-01-30T01:37:25.149Z,1009.06
2017-01-30T01:38:05.907Z,1009.05
2017-01-30T01:38:46.664Z,1009.12
2017-01-30T01:39:27.209Z,1009.08
2017-01-30T01:40:07.955Z,1009.09
2017-01-30T01:40:48.724Z,1009.09
2017-01-30T01:41:29.296Z,1009.08
2017-01-30T01:42:10.014Z,1009.08
2017-01-30T01:42:50.681Z,1009.06
2017-01-30T01:43:31.254Z,1009.04
2017-01-30T01:44:11.979Z,1009
2017-01-30T01:44:52.744Z,1009.06
2017-01-30T01:45:33.501Z,1009.05
2017-01-30T01:46:14.150Z,1008.98
2017-01-30T01:46:54.809Z,1009
2017-01-30T01:47:35.554Z,1008.94
2017-01-30T01:48:16.213Z,1008.97
2017-01-30T01:48:56.866Z,1008.95
2017-01-30T01:49:37.616Z,1008.92
2017-01-30T01:50:18.169Z,1008.92
2017-01-30T01:50:58.825Z,1008.88
2017-01-30T01:51:39.473Z,1008.89
2017-01-30T01:52:20.127Z,1008.87
2017-01-30T01:53:00.783Z,1008.88
2017-01-30T01:53:41.555Z,1008.81
2017-01-30T01:54:22.297Z,1008.78
2017-01-30T01:55:03.044Z,1008.83
2017-01-30T01:55:43.802Z,1008.76
2017-01-30T01:56:24.556Z,1008.71
2017-01-30T01:57:05.313Z,1008.77
2017-01-30T01:57:46.068Z,1008.73
2017-01-30T01:58:26.825Z,1008.72
2017-01-30T01:59:07.385Z,1008.72
2017-01-30T01:59:48.132Z,1008.71
2017-01-30T02:00:28.879Z,1008.69
2017-01-30T02:01:09.431Z,1008.69
2017-01-30T02:01:50.187Z,1008.72
2017-01-30T02:02:30.740Z,1008.69
2017-01-30T02:03:11.392Z,1008.69
2017-01-30T02:03:51.967Z,1008.69
2017-01-30T02:04:32.588Z,1008.66
2017-01-30T02:05:13.270Z,1008.67
2017-01-30T02:05:53.843Z,1008.64
2017-01-30T02:06:34.620Z,1008.63
2017-01-30T02:07:15.307Z,1008.61
2017-01-30T02:07:56.062Z,1008.59
2017-01-30T02:08:36.630Z,1008.63
2017-01-30T02:09:17.345Z,1008.56
2017-01-30T02:09:58.019Z,1008.53
2017-01-30T02:10:38.779Z,1008.55
2017-01-30T02:11:19.338Z,1008.58
2017-01-30T02:12:00.050Z,1008.55
2017-01-30T02:12:40.837Z,1008.48
2017-01-30T02:13:21.598Z,1008.48
2017-01-30T02:14:02.177Z,1008.47
2017-01-30T02:14:42.874Z,1008.44
2017-01-30T02:15:23.555Z,1008.43
2017-01-30T02:16:04.215Z,1008.41
2017-01-30T02:16:44.888Z,1008.36
2017-01-30T02:17:25.671Z,1008.39
2017-01-30T02:18:06.373Z,1008.34
2017-01-30T02:18:47.125Z,1008.33
2017-01-30T02:19:27.691Z,1008.31
2017-01-30T02:20:08.384Z,1008.34
2017-01-30T02:20:49.186Z,1008.29
2017-01-30T02:21:29.947Z,1008.29
2017-01-30T02:22:10.547Z,1008.29
2017-01-30T02:22:51.305Z,1008.26
2017-01-30T02:23:31.998Z,1008.26
2017-01-30T02:24:12.759Z,1008.22
2017-01-30T02:24:53.410Z,1008.18
2017-01-30T02:25:34.062Z,1008.17
2017-01-30T02:26:14.818Z,1008.13
2017-01-30T02:26:55.578Z,1008.08
2017-01-30T02:27:36.329Z,1008.08
2017-01-30T02:28:17.090Z,1008.05
2017-01-30T02:28:57.839Z,1008.02
2017-01-30T02:29:38.595Z,1007.95
2017-01-30T02:30:19.162Z,1007.92
2017-01-30T02:31:00.004Z,1007.94
2017-01-30T02:31:40.663Z,1007.93
2017-01-30T02:32:22.234Z,1007.9
2017-01-30T02:33:02.881Z,1007.88
2017-01-30T02:33:43.550Z,1007.85
2017-01-30T02:34:24.096Z,1007.84
2017-01-30T02:35:04.838Z,1007.77
2017-01-30T02:35:45.600Z,1007.79
2017-01-30T02:36:26.166Z,1007.75
2017-01-30T02:37:06.900Z,1007.76
2017-01-30T02:37:47.657Z,1007.73
2017-01-30T02:38:28.226Z,1007.74
2017-01-30T02:39:08.917Z,1007.75
2017-01-30T02:39:49.615Z,1007.71
2017-01-30T02:40:30.374Z,1007.78
2017-01-30T02:41:10.923Z,1007.75
2017-01-30T02:41:51.642Z,1007.78
2017-01-30T02:42:32.326Z,1007.78
2017-01-30T02:43:13.085Z,1007.8
2017-01-30T02:43:53.667Z,1007.78
2017-01-30T02:44:34.393Z,1007.77
2017-01-30T02:45:15.154Z,1007.76
2017-01-30T02:45:55.804Z,1007.77
2017-01-30T02:46:36.458Z,1007.72
2017-01-30T02:47:17.104Z,1007.71
2017-01-30T02:47:57.760Z,1007.73
2017-01-30T02:48:38.410Z,1007.7
2017-01-30T02:49:19.064Z,1007.7
2017-01-30T02:49:59.718Z,1007.75
2017-01-30T02:50:40.475Z,1007.71
2017-01-30T02:51:21.130Z,1007.65
2017-01-30T02:52:01.779Z,1007.68
2017-01-30T02:52:42.429Z,1007.61
2017-01-30T02:53:23.085Z,1007.59
2017-01-30T02:54:03.845Z,1007.56
2017-01-30T02:54:44.407Z,1007.56
2017-01-30T02:55:24.990Z,1007.53
2017-01-30T02:56:05.575Z,1007.5
2017-01-30T02:56:46.251Z,1007.47
2017-01-30T02:57:26.802Z,1007.45
2017-01-30T02:58:07.398Z,1007.39
2017-01-30T02:58:48.001Z,1007.4
2017-01-30T02:59:28.762Z,1007.39
2017-01-30T03:00:09.413Z,1007.37
2017-01-30T03:00:50.059Z,1007.35
2017-01-30T03:01:30.711Z,1007.33
2017-01-30T03:02:11.391Z,1007.27
2017-01-30T03:02:52.140Z,1007.26
2017-01-30T03:03:32.879Z,1007.23
2017-01-30T03:04:13.634Z,1007.24
2017-01-30T03:04:54.397Z,1007.2
2017-01-30T03:05:35.156Z,1007.22
2017-01-30T03:06:15.902Z,1007.16
2017-01-30T03:06:56.656Z,1007.13
2017-01-30T03:07:37.419Z,1007.09
2017-01-30T03:08:18.170Z,1007.07
2017-01-30T03:08:58.930Z,1007.09
2017-01-30T03:09:39.688Z,1007.06
2017-01-30T03:10:20.337Z,1007.07
2017-01-30T03:11:00.994Z,1007.11
2017-01-30T03:11:41.571Z,1007.13
2017-01-30T03:12:22.188Z,1007.1
2017-01-30T03:13:02.839Z,1007.09
2017-01-30T03:13:43.502Z,1007.09
2017-01-30T03:14:24.147Z,1007.09
2017-01-30T03:15:04.808Z,1007.05
2017-01-30T03:15:45.463Z,1007.03
2017-01-30T03:16:26.113Z,1006.95
2017-01-30T03:17:06.758Z,1006.95
2017-01-30T03:17:47.404Z,1006.91
2017-01-30T03:18:28.061Z,1006.9
2017-01-30T03:19:08.727Z,1006.88
2017-01-30T03:19:49.365Z,1006.83
2017-01-30T03:20:30.016Z,1006.87
2017-01-30T03:21:10.673Z,1006.88
2017-01-30T03:21:51.325Z,1006.86
2017-01-30T03:22:31.976Z,1006.8
2017-01-30T03:23:12.628Z,1006.83
2017-01-30T03:23:53.297Z,1006.84
2017-01-30T03:24:33.883Z,1006.8
2017-01-30T03:25:14.478Z,1006.81
2017-01-30T03:25:55.036Z,1006.84
2017-01-30T03:26:35.604Z,1006.86
2017-01-30T03:27:16.220Z,1006.84
2017-01-30T03:27:56.891Z,1006.84
2017-01-30T03:28:37.459Z,1006.8
2017-01-30T03:29:18.079Z,1006.8
2017-01-30T03:29:58.748Z,1006.8
2017-01-30T03:30:39.315Z,1006.73
2017-01-30T03:31:19.960Z,1006.75
2017-01-30T03:32:00.603Z,1006.76
2017-01-30T03:32:41.152Z,1006.74
2017-01-30T03:33:21.793Z,1006.71
2017-01-30T03:34:02.354Z,1006.71
2017-01-30T03:34:43.018Z,1006.69
2017-01-30T03:35:23.679Z,1006.67
2017-01-30T03:36:04.325Z,1006.64
2017-01-30T03:36:44.982Z,1006.58
2017-01-30T03:37:25.640Z,1006.61
2017-01-30T03:38:06.280Z,1006.58
2017-01-30T03:38:46.966Z,1006.55
2017-01-30T03:39:27.497Z,1006.56
2017-01-30T03:40:08.148Z,1006.51
2017-01-30T03:40:48.800Z,1006.5
2017-01-30T03:41:29.355Z,1006.49
2017-01-30T03:42:09.991Z,1006.47
2017-01-30T03:42:50.648Z,1006.47
2017-01-30T03:43:31.213Z,1006.48
2017-01-30T03:44:11.842Z,1006.45
2017-01-30T03:44:52.501Z,1006.43
2017-01-30T03:45:33.144Z,1006.36
2017-01-30T03:46:13.799Z,1006.38
2017-01-30T03:46:54.451Z,1006.34
2017-01-30T03:47:35.110Z,1006.33
2017-01-30T03:48:15.758Z,1006.29
2017-01-30T03:48:56.409Z,1006.34
2017-01-30T03:49:37.060Z,1006.33
2017-01-30T03:50:17.714Z,1006.25
2017-01-30T03:50:58.366Z,1006.26
2017-01-30T03:51:39.020Z,1006.24
2017-01-30T03:52:19.676Z,1006.24
2017-01-30T03:53:00.331Z,1006.27
2017-01-30T03:53:40.906Z,1006.21
2017-01-30T03:54:21.533Z,1006.23
2017-01-30T03:55:02.189Z,1006.18
2017-01-30T03:55:42.841Z,1006.19
2017-01-30T03:56:23.506Z,1006.16
2017-01-30T03:57:04.161Z,1006.17
2017-01-30T03:57:44.812Z,1006.12
2017-01-30T03:58:25.467Z,1006.11
2017-01-30T03:59:06.120Z,1006.06
2017-01-30T03:59:46.773Z,1006.03
2017-01-30T04:00:27.427Z,1006.04
2017-01-30T04:01:08.078Z,1006.05
2017-01-30T04:01:48.731Z,1006
2017-01-30T04:02:29.385Z,1005.98
2017-01-30T04:03:10.038Z,1005.98
2017-01-30T04:03:50.689Z,1005.95
2017-01-30T04:04:31.247Z,1005.94
2017-01-30T04:05:11.954Z,1005.93
2017-01-30T04:05:52.648Z,1005.93
2017-01-30T04:06:33.301Z,1005.92
2017-01-30T04:07:13.834Z,1005.91
2017-01-30T04:07:54.457Z,1005.88
2017-01-30T04:08:35.063Z,1005.88
2017-01-30T04:09:15.708Z,1005.85
2017-01-30T04:09:56.262Z,1005.85
2017-01-30T04:10:36.857Z,1005.8
2017-01-30T04:11:17.445Z,1005.78
2017-01-30T04:11:58.094Z,1005.75
2017-01-30T04:12:38.669Z,1005.78
2017-01-30T04:13:19.379Z,1005.75
2017-01-30T04:13:59.936Z,1005.74
2017-01-30T04:14:40.606Z,1005.77
2017-01-30T04:15:21.259Z,1005.76
2017-01-30T04:16:01.930Z,1005.74
2017-01-30T04:16:42.569Z,1005.74
2017-01-30T04:17:23.230Z,1005.73
2017-01-30T04:18:03.871Z,1005.71
2017-01-30T04:18:44.540Z,1005.72
2017-01-30T04:19:25.195Z,1005.68
2017-01-30T04:20:05.846Z,1005.61
2017-01-30T04:20:46.499Z,1005.61
2017-01-30T04:21:27.057Z,1005.63
2017-01-30T04:22:07.705Z,1005.61
2017-01-30T04:22:48.352Z,1005.57
2017-01-30T04:23:29.018Z,1005.53
2017-01-30T04:24:09.659Z,1005.5
2017-01-30T04:24:50.317Z,1005.51
2017-01-30T04:25:30.874Z,1005.49
2017-01-30T04:26:11.530Z,1005.51
2017-01-30T04:26:52.149Z,1005.44
2017-01-30T04:27:32.732Z,1005.45
2017-01-30T04:28:13.351Z,1005.43
2017-01-30T04:28:54.003Z,1005.43
2017-01-30T04:29:34.555Z,1005.4
2017-01-30T04:30:15.206Z,1005.4
2017-01-30T04:30:55.862Z,1005.36
2017-01-30T04:31:36.411Z,1005.4
2017-01-30T04:32:17.018Z,1005.37
2017-01-30T04:32:57.716Z,1005.37
2017-01-30T04:33:38.282Z,1005.34
2017-01-30T04:34:19.898Z,1005.34
2017-01-30T04:35:00.493Z,1005.38
2017-01-30T04:35:42.169Z,1005.33
2017-01-30T04:36:22.856Z,1005.32
2017-01-30T04:37:03.504Z,1005.34
2017-01-30T04:37:44.137Z,1005.31
2017-01-30T04:38:24.779Z,1005.26
2017-01-30T04:39:05.435Z,1005.25
2017-01-30T04:39:46.088Z,1005.21
2017-01-30T04:40:26.767Z,1005.23
2017-01-30T04:41:07.419Z,1005.22
2017-01-30T04:41:48.074Z,1005.16
2017-01-30T04:42:28.724Z,1005.21
2017-01-30T04:43:09.384Z,1005.18
2017-01-30T04:43:50.031Z,1005.13
2017-01-30T04:44:30.688Z,1005.12
2017-01-30T04:45:11.340Z,1005.17
2017-01-30T04:45:51.977Z,1005.16
2017-01-30T04:46:32.642Z,1005.22
2017-01-30T04:47:13.297Z,1005.1
2017-01-30T04:47:53.951Z,1005.11
2017-01-30T04:48:34.602Z,1005.12
2017-01-30T04:49:15.163Z,1005.11
2017-01-30T04:49:55.807Z,1005.1
2017-01-30T04:50:36.392Z,1005.08
2017-01-30T04:51:17.058Z,1005.05
2017-01-30T04:51:57.633Z,1005.06
2017-01-30T04:52:38.289Z,1004.99
2017-01-30T04:53:18.858Z,1005.01
2017-01-30T04:53:59.425Z,1004.99
2017-01-30T04:54:40.039Z,1004.98
2017-01-30T04:55:20.699Z,1004.98
2017-01-30T04:56:01.345Z,1004.91
2017-01-30T04:56:42.001Z,1004.88
2017-01-30T04:57:22.647Z,1004.85
2017-01-30T04:58:03.306Z,1004.87
2017-01-30T04:58:43.966Z,1004.87
2017-01-30T04:59:24.610Z,1004.86
2017-01-30T05:00:05.266Z,1004.85
2017-01-30T05:00:45.947Z,1004.85
2017-01-30T05:01:26.621Z,1004.81
2017-01-30T05:02:07.254Z,1004.85
2017-01-30T05:02:47.873Z,1004.76
2017-01-30T05:03:28.560Z,1004.81
2017-01-30T05:04:09.213Z,1004.78
2017-01-30T05:04:49.744Z,1004.77
2017-01-30T05:05:30.369Z,1004.75
2017-01-30T05:06:11.033Z,1004.69
2017-01-30T05:06:51.692Z,1004.73
2017-01-30T05:07:32.255Z,1004.73
2017-01-30T05:08:12.883Z,1004.73
2017-01-30T05:08:53.544Z,1004.75
2017-01-30T05:09:34.200Z,1004.72
2017-01-30T05:10:14.850Z,1004.72
2017-01-30T05:10:55.518Z,1004.68
2017-01-30T05:11:36.162Z,1004.63
2017-01-30T05:12:16.839Z,1004.66
2017-01-30T05:12:57.463Z,1004.64
2017-01-30T05:13:38.116Z,1004.63
2017-01-30T05:14:18.771Z,1004.59
2017-01-30T05:14:59.351Z,1004.58
2017-01-30T05:15:39.971Z,1004.56
2017-01-30T05:16:20.656Z,1004.52
2017-01-30T05:17:01.215Z,1004.54
2017-01-30T05:17:41.860Z,1004.5
2017-01-30T05:18:22.424Z,1004.49
2017-01-30T05:19:03.027Z,1004.52
2017-01-30T05:19:43.685Z,1004.51
2017-01-30T05:20:24.250Z,1004.47
2017-01-30T05:21:04.836Z,1004.47
2017-01-30T05:21:45.432Z,1004.46
2017-01-30T05:22:26.002Z,1004.44
2017-01-30T05:23:06.632Z,1004.42
2017-01-30T05:23:47.295Z,1004.37
2017-01-30T05:24:27.857Z,1004.35
2017-01-30T05:25:08.532Z,1004.35
2017-01-30T05:25:49.150Z,1004.35
2017-01-30T05:26:29.805Z,1004.33
2017-01-30T05:27:10.488Z,1004.34
2017-01-30T05:27:51.138Z,1004.34
2017-01-30T05:28:31.835Z,1004.33
2017-01-30T05:29:12.450Z,1004.29
2017-01-30T05:29:53.101Z,1004.29
2017-01-30T05:30:33.725Z,1004.29
2017-01-30T05:31:14.408Z,1004.29
2017-01-30T05:31:55.060Z,1004.27
2017-01-30T05:32:35.738Z,1004.23
2017-01-30T05:33:16.370Z,1004.2
2017-01-30T05:33:57.021Z,1004.23
2017-01-30T05:34:37.573Z,1004.21
2017-01-30T05:35:18.274Z,1004.22
2017-01-30T05:35:58.951Z,1004.16
2017-01-30T05:36:39.630Z,1004.18
2017-01-30T05:37:20.198Z,1004.21
2017-01-30T05:38:00.897Z,1004.16
2017-01-30T05:38:41.588Z,1004.16
2017-01-30T05:39:22.238Z,1004.17
2017-01-30T05:40:02.807Z,1004.16
2017-01-30T05:40:43.495Z,1004.15
2017-01-30T05:41:24.204Z,1004.12
2017-01-30T05:42:04.856Z,1004.1
2017-01-30T05:42:45.440Z,1004.06
2017-01-30T05:43:26.124Z,1004.06
2017-01-30T05:44:06.808Z,1004.06
2017-01-30T05:44:47.376Z,1004.07
2017-01-30T05:45:28.016Z,1004.1
2017-01-30T05:46:08.671Z,1004.1
2017-01-30T05:46:49.235Z,1004.13
2017-01-30T05:47:29.939Z,1004.12
2017-01-30T05:48:10.629Z,1004.22
2017-01-30T05:48:51.279Z,1004.19
2017-01-30T05:49:31.860Z,1004.2
2017-01-30T05:50:12.559Z,1004.26
2017-01-30T05:50:53.231Z,1004.19
2017-01-30T05:51:33.854Z,1004.17
2017-01-30T05:52:14.418Z,1004.14
2017-01-30T05:52:54.996Z,1004.12
2017-01-30T05:53:35.672Z,1004.07
2017-01-30T05:54:16.290Z,1004.1
2017-01-30T05:54:56.954Z,1004.07
2017-01-30T05:55:40.574Z,1004.13
2017-01-30T05:56:22.149Z,1004.13
2017-01-30T05:57:02.796Z,1004.17
2017-01-30T05:57:43.556Z,1004.2
2017-01-30T05:58:24.204Z,1004.18
2017-01-30T05:59:04.864Z,1004.16
2017-01-30T05:59:45.515Z,1004.16
2017-01-30T06:00:26.177Z,1004.12
2017-01-30T06:01:06.822Z,1004.12
2017-01-30T06:01:47.477Z,1004.1
2017-01-30T06:02:28.134Z,1004.12
2017-01-30T06:03:08.786Z,1004.14
2017-01-30T06:03:49.439Z,1004.13
2017-01-30T06:04:30.088Z,1004.09
2017-01-30T06:05:10.647Z,1004.1
2017-01-30T06:05:51.351Z,1004.05
2017-01-30T06:06:32.052Z,1004.05
2017-01-30T06:07:12.699Z,1004.07
2017-01-30T06:07:53.258Z,1004.05
2017-01-30T06:08:33.951Z,1004.01
2017-01-30T06:09:14.529Z,1003.97
2017-01-30T06:09:55.214Z,1003.98
2017-01-30T06:10:35.848Z,1003.99
2017-01-30T06:11:16.503Z,1003.95
2017-01-30T06:11:57.157Z,1003.98
2017-01-30T06:12:38.829Z,1003.99
2017-01-30T06:13:19.481Z,1004.01
2017-01-30T06:14:00.136Z,1003.99
2017-01-30T06:14:40.789Z,1004.01
2017-01-30T06:15:21.441Z,1003.96
2017-01-30T06:16:02.103Z,1003.89
2017-01-30T06:16:43.775Z,1003.87
2017-01-30T06:17:29.245Z,1003.9
2017-01-30T06:18:09.863Z,1003.93
2017-01-30T06:18:50.564Z,1003.87
2017-01-30T06:19:32.219Z,1003.84
2017-01-30T06:20:12.873Z,1003.86
2017-01-30T06:20:55.581Z,1003.85
2017-01-30T06:21:37.270Z,1003.86
2017-01-30T06:22:18.933Z,1003.85
2017-01-30T06:22:59.580Z,1003.8
2017-01-30T06:23:40.234Z,1003.81
2017-01-30T06:24:25.705Z,1003.82
2017-01-30T06:25:06.269Z,1003.82
2017-01-30T06:25:46.979Z,1003.82
2017-01-30T06:26:27.660Z,1003.86
2017-01-30T06:27:08.317Z,1003.85
2017-01-30T06:27:48.873Z,1003.85
2017-01-30T06:28:30.142Z,1003.86
2017-01-30T06:29:10.786Z,1003.89
2017-01-30T06:29:53.491Z,1003.9
2017-01-30T06:30:35.162Z,1003.87
2017-01-30T06:31:20.738Z,1003.92
2017-01-30T06:32:02.378Z,1003.89
2017-01-30T06:32:43.031Z,1003.91
2017-01-30T06:33:23.684Z,1003.98
2017-01-30T06:34:04.335Z,1004.02
2017-01-30T06:34:44.984Z,1003.99
2017-01-30T06:35:31.206Z,1003.96
2017-01-30T06:36:11.823Z,1004
2017-01-30T06:36:58.243Z,1003.9
2017-01-30T06:37:38.894Z,1003.92
2017-01-30T06:38:19.552Z,1003.9
2017-01-30T06:39:02.248Z,1003.95
2017-01-30T06:39:42.810Z,1003.92
2017-01-30T06:40:23.381Z,1003.87
2017-01-30T06:41:04.007Z,1003.85
2017-01-30T06:41:44.586Z,1003.82
2017-01-30T06:42:25.219Z,1003.88
2017-01-30T06:43:05.858Z,1003.84
2017-01-30T06:43:46.431Z,1003.87
2017-01-30T06:44:27.074Z,1003.86
2017-01-30T06:45:07.721Z,1003.85
2017-01-30T06:45:48.281Z,1003.87
2017-01-30T06:46:28.984Z,1003.87
2017-01-30T06:47:10.696Z,1003.88
2017-01-30T06:47:51.364Z,1003.86
2017-01-30T06:48:31.930Z,1003.89
2017-01-30T06:49:13.644Z,1003.86
2017-01-30T06:49:54.349Z,1003.87
2017-01-30T06:50:34.987Z,1003.84
2017-01-30T06:51:16.681Z,1003.82
2017-01-30T06:51:57.320Z,1003.85
2017-01-30T06:52:37.969Z,1003.86
2017-01-30T06:53:23.232Z,1003.8
2017-01-30T06:54:03.886Z,1003.86
2017-01-30T06:54:44.536Z,1003.9
2017-01-30T06:55:25.208Z,1003.87
2017-01-30T06:56:05.847Z,1003.86
2017-01-30T06:56:46.502Z,1003.86
2017-01-30T06:57:28.134Z,1003.93
2017-01-30T06:58:08.804Z,1003.87
2017-01-30T06:58:50.465Z,1003.84
2017-01-30T06:59:31.124Z,1003.86
2017-01-30T07:00:11.686Z,1003.87
2017-01-30T07:00:52.312Z,1003.85
2017-01-30T07:01:32.972Z,1003.84
2017-01-30T07:02:13.541Z,1003.85
2017-01-30T07:02:54.135Z,1003.84
2017-01-30T07:03:34.774Z,1003.83
2017-01-30T07:04:16.406Z,1003.84
2017-01-30T07:04:56.944Z,1003.83
2017-01-30T07:05:37.651Z,1003.8
2017-01-30T07:06:20.244Z,1003.79
2017-01-30T07:07:00.911Z,1003.79
2017-01-30T07:07:42.561Z,1003.8
2017-01-30T07:08:24.249Z,1003.81
2017-01-30T07:09:04.903Z,1003.87
2017-01-30T07:09:45.557Z,1003.82
2017-01-30T07:10:26.195Z,1003.84
2017-01-30T07:11:07.886Z,1003.79
2017-01-30T07:11:48.548Z,1003.83
2017-01-30T07:12:29.208Z,1003.81
2017-01-30T07:13:09.801Z,1003.8
2017-01-30T07:13:50.507Z,1003.78
2017-01-30T07:14:32.186Z,1003.79
2017-01-30T07:15:12.826Z,1003.8
2017-01-30T07:15:54.529Z,1003.72
2017-01-30T07:16:35.167Z,1003.76
2017-01-30T07:17:15.926Z,1003.79
2017-01-30T07:17:56.561Z,1003.76
2017-01-30T07:18:37.221Z,1003.8
2017-01-30T07:19:18.854Z,1003.75
2017-01-30T07:19:59.503Z,1003.75
2017-01-30T07:20:40.176Z,1003.74
2017-01-30T07:21:32.499Z,1003.76
2017-01-30T07:22:14.073Z,1003.74
2017-01-30T07:22:55.757Z,1003.76
2017-01-30T07:23:47.249Z,1003.75
2017-01-30T07:24:28.941Z,1003.73
2017-01-30T07:25:09.526Z,1003.8
2017-01-30T07:25:50.191Z,1003.72
2017-01-30T07:26:31.814Z,1003.76
2017-01-30T07:27:12.532Z,1003.75
2017-01-30T07:27:54.200Z,1003.73
2017-01-30T07:28:35.008Z,1003.75
2017-01-30T07:29:15.666Z,1003.67
2017-01-30T07:58:17.554Z,1003.54
2017-01-30T07:58:58.225Z,1003.52
2017-01-30T07:59:38.927Z,1003.5
2017-01-30T08:00:19.487Z,1003.49
2017-01-30T08:01:00.185Z,1003.51
2017-01-30T08:01:40.879Z,1003.53
2017-01-30T08:02:22.570Z,1003.52
2017-01-30T08:03:03.123Z,1003.53
2017-01-30T08:03:43.809Z,1003.48
2017-01-30T08:04:24.459Z,1003.51
2017-01-30T08:05:05.027Z,1003.51
2017-01-30T08:05:45.629Z,1003.5
2017-01-30T08:06:28.329Z,1003.51
2017-01-30T08:07:08.988Z,1003.5
2017-01-30T08:07:49.562Z,1003.53
2017-01-30T08:08:30.222Z,1003.5
2017-01-30T08:09:10.833Z,1003.52
2017-01-30T08:09:51.406Z,1003.53
2017-01-30T08:10:33.047Z,1003.48
2017-01-30T08:11:13.732Z,1003.52
2017-01-30T08:11:54.287Z,1003.47
2017-01-30T08:12:34.970Z,1003.48
2017-01-30T08:13:15.697Z,1003.52
2017-01-30T08:13:56.334Z,1003.53
2017-01-30T08:14:36.887Z,1003.51
2017-01-30T08:15:18.605Z,1003.48
2017-01-30T08:15:59.258Z,1003.46
2017-01-30T08:16:39.912Z,1003.47
2017-01-30T08:17:20.577Z,1003.49
2017-01-30T08:18:01.289Z,1003.47
2017-01-30T08:18:42.999Z,1003.49
2017-01-30T08:19:24.764Z,1003.47
2017-01-30T08:20:05.452Z,1003.47
2017-01-30T08:20:46.255Z,1003.48
2017-01-30T08:21:26.839Z,1003.47
2017-01-30T08:22:07.494Z,1003.42
2017-01-30T08:22:48.137Z,1003.42
2017-01-30T08:23:28.790Z,1003.45
2017-01-30T08:24:09.447Z,1003.44
2017-01-30T08:24:50.098Z,1003.44
2017-01-30T08:25:30.756Z,1003.46
2017-01-30T08:26:11.403Z,1003.43
2017-01-30T08:26:52.053Z,1003.46
2017-01-30T08:27:32.709Z,1003.45
2017-01-30T08:28:13.418Z,1003.41
2017-01-30T08:28:54.077Z,1003.39
2017-01-30T08:29:34.734Z,1003.38
2017-01-30T08:30:15.280Z,1003.45
2017-01-30T08:30:56.041Z,1003.44
2017-01-30T08:31:36.710Z,1003.43
2017-01-30T08:32:17.455Z,1003.44
2017-01-30T08:32:58.086Z,1003.41
2017-01-30T08:33:38.748Z,1003.43
2017-01-30T08:34:19.485Z,1003.4
2017-01-30T08:35:00.095Z,1003.37
2017-01-30T08:35:40.746Z,1003.4
2017-01-30T08:36:21.398Z,1003.38
2017-01-30T08:37:02.053Z,1003.37
2017-01-30T08:37:42.712Z,1003.41
2017-01-30T08:38:23.359Z,1003.39
2017-01-30T08:39:04.017Z,1003.38
2017-01-30T08:39:44.664Z,1003.32
2017-01-30T08:40:25.377Z,1003.38
2017-01-30T08:41:05.971Z,1003.37
2017-01-30T08:41:46.535Z,1003.32
2017-01-30T08:42:27.338Z,1003.34
2017-01-30T08:43:08.091Z,1003.37
2017-01-30T08:43:48.847Z,1003.32